メインページ
METAR-TAF:

METAR-TAF

空港 :

Mackenzie, ブリティッシュコロンビア州, カナダ

緯度: 55-18N, 経度: 123-08W, 海抜: 695m

現時点の気象観測

当レポートは38分前の09:00(UTC)に作成
南/南東の風 6kt
気温 2°C
湿度 93%
気圧 1015 hPa
視程: 14.5km
高度2300ftの雲はほとんどない
高度9500ftの曇り

METAR: CYZY 140900Z AUTO 15006KT 9SM FEW023 OVC095 02/01 A2998 RMK SLP183

時間: 01:38 (09:38 UTC)

予報

当レポートは1時間2分前の08:36(UTC)に作成
予報は14日の 08時(UTC)から 14日の 09時(UTC)まで有効
の風 5kt
視程: 10km
高度800ftの雲は散在している
高度2500ftの雲は散在している
高度10000ftの曇り
14日の 08時(UTC)から 14日の 09時(UTC)まで一時的に
視程: 4.8km
高度600ftの千切れ雲あり
高度2500ftの曇り

TAF: CYZY 140836Z 1408/1409 17005KT P6SM SCT008 SCT025 OVC100 TEMPO 1408/1409 3SM BR BKN006 OVC025 RMK FCST BASED ON AUTO OBS. NXT FCST WILL BE ISSUED AT 141445Z

4,000以上の空港の気象観測と天気予報(METAR報とTAF報)

利用可能な観測所は地図上に黄色い丸と赤い丸で示す。

丸の上にカーソルを重ねると観測所名を参照できる。

次にクリックすると気象観測と天気予報を参照できる。

マップの切り替え:黒色「×」印の緑ボタンをクリックして拡大、「-」印の緑ボタンをクリックして縮小、緑色の三角印をクリックして隣りの地図に切り替え


METAR-TAF: